sensor_id;sensor_type;location;lat;lon;timestamp;pressure;altitude;pressure_sealevel;temperature;humidity
68628;BME280;55611;48.602;9.490;2023-05-09T00:01:35;97180;;;15.6;62.5
68628;BME280;55611;48.602;9.490;2023-05-09T00:04:05;97180;;;15.5;62.5
68628;BME280;55611;48.602;9.490;2023-05-09T00:06:36;97180;;;15.5;62
68628;BME280;55611;48.602;9.490;2023-05-09T00:09:06;97180;;;15.5;62
68628;BME280;55611;48.602;9.490;2023-05-09T00:11:37;97180;;;15.4;62
68628;BME280;55611;48.602;9.490;2023-05-09T00:14:07;97170;;;15.3;62
68628;BME280;55611;48.602;9.490;2023-05-09T00:16:38;97170;;;15.3;62
68628;BME280;55611;48.602;9.490;2023-05-09T00:19:08;97170;;;15.2;62.5
68628;BME280;55611;48.602;9.490;2023-05-09T00:21:39;97170;;;15.1;62.5
68628;BME280;55611;48.602;9.490;2023-05-09T00:24:09;97160;;;15.1;62.5
68628;BME280;55611;48.602;9.490;2023-05-09T00:26:40;97170;;;15.1;62.5
68628;BME280;55611;48.602;9.490;2023-05-09T00:29:10;97170;;;15;62.5
68628;BME280;55611;48.602;9.490;2023-05-09T00:31:41;97170;;;15.1;62.5
68628;BME280;55611;48.602;9.490;2023-05-09T00:34:11;97160;;;15.1;62.5
68628;BME280;55611;48.602;9.490;2023-05-09T00:36:42;97160;;;15.1;62
68628;BME280;55611;48.602;9.490;2023-05-09T00:39:12;97150;;;15.2;62
68628;BME280;55611;48.602;9.490;2023-05-09T00:41:43;97150;;;15.2;62
68628;BME280;55611;48.602;9.490;2023-05-09T00:44:13;97150;;;15.3;62
68628;BME280;55611;48.602;9.490;2023-05-09T00:46:44;97140;;;15.2;62
68628;BME280;55611;48.602;9.490;2023-05-09T00:49:15;97140;;;15.3;62
68628;BME280;55611;48.602;9.490;2023-05-09T00:51:45;97140;;;15.3;62.5
68628;BME280;55611;48.602;9.490;2023-05-09T00:54:15;97130;;;15.3;62.5
68628;BME280;55611;48.602;9.490;2023-05-09T00:56:46;97130;;;15.2;62.5
68628;BME280;55611;48.602;9.490;2023-05-09T00:59:16;97130;;;15.2;62.5
68628;BME280;55611;48.602;9.490;2023-05-09T01:01:47;97120;;;15.3;62.5
68628;BME280;55611;48.602;9.490;2023-05-09T01:04:18;97120;;;15.3;62.5
68628;BME280;55611;48.602;9.490;2023-05-09T01:09:23;97120;;;15.5;62.5
68628;BME280;55611;48.602;9.490;2023-05-09T01:11:56;97120;;;15.6;62
68628;BME280;55611;48.602;9.490;2023-05-09T01:14:54;97120;;;15.6;62
68628;BME280;55611;48.602;9.490;2023-05-09T01:17:00;97110;;;15.6;62
68628;BME280;55611;48.602;9.490;2023-05-09T01:21:51;97110;;;15.4;62.5
68628;BME280;55611;48.602;9.490;2023-05-09T01:24:39;97110;;;15.4;62
68628;BME280;55611;48.602;9.490;2023-05-09T01:26:58;97110;;;15.4;62
68628;BME280;55611;48.602;9.490;2023-05-09T01:29:41;97100;;;15.4;62
68628;BME280;55611;48.602;9.490;2023-05-09T01:31:54;97110;;;15.4;62
68628;BME280;55611;48.602;9.490;2023-05-09T01:34:25;97110;;;15.3;62
68628;BME280;55611;48.602;9.490;2023-05-09T01:36:55;97110;;;15.2;62
68628;BME280;55611;48.602;9.490;2023-05-09T01:39:25;97120;;;15.1;62.5
68628;BME280;55611;48.602;9.490;2023-05-09T01:41:55;97110;;;15.1;62.5
68628;BME280;55611;48.602;9.490;2023-05-09T01:44:26;97120;;;15.1;62.5
68628;BME280;55611;48.602;9.490;2023-05-09T01:46:56;97110;;;15.1;62.5
68628;BME280;55611;48.602;9.490;2023-05-09T01:49:28;97110;;;15.1;62.5
68628;BME280;55611;48.602;9.490;2023-05-09T01:51:58;97110;;;15.2;62.5
68628;BME280;55611;48.602;9.490;2023-05-09T01:54:28;97110;;;15.2;62
68628;BME280;55611;48.602;9.490;2023-05-09T01:56:58;97110;;;15.2;62
68628;BME280;55611;48.602;9.490;2023-05-09T01:59:29;97110;;;15.1;62
68628;BME280;55611;48.602;9.490;2023-05-09T02:02:00;97110;;;15;62
68628;BME280;55611;48.602;9.490;2023-05-09T02:04:30;97110;;;14.9;62.5
68628;BME280;55611;48.602;9.490;2023-05-09T02:07:01;97100;;;14.9;62.5
68628;BME280;55611;48.602;9.490;2023-05-09T02:09:31;97100;;;15;62.5
68628;BME280;55611;48.602;9.490;2023-05-09T02:12:01;97100;;;15;62.5
68628;BME280;55611;48.602;9.490;2023-05-09T02:14:32;97100;;;15;62.5
68628;BME280;55611;48.602;9.490;2023-05-09T02:17:02;97100;;;15;62.5
68628;BME280;55611;48.602;9.490;2023-05-09T02:19:34;97100;;;15;62.5
68628;BME280;55611;48.602;9.490;2023-05-09T02:22:03;97100;;;15.1;62.5
68628;BME280;55611;48.602;9.490;2023-05-09T02:24:34;97100;;;15.1;62
68628;BME280;55611;48.602;9.490;2023-05-09T02:27:04;97110;;;15;62
68628;BME280;55611;48.602;9.490;2023-05-09T02:29:38;97110;;;14.9;62
68628;BME280;55611;48.602;9.490;2023-05-09T02:32:08;97100;;;15;62
68628;BME280;55611;48.602;9.490;2023-05-09T02:34:36;97100;;;15.1;62
68628;BME280;55611;48.602;9.490;2023-05-09T02:37:07;97110;;;15.1;62
68628;BME280;55611;48.602;9.490;2023-05-09T02:39:37;97110;;;15;62
68628;BME280;55611;48.602;9.490;2023-05-09T02:42:09;97110;;;15;62
68628;BME280;55611;48.602;9.490;2023-05-09T02:44:38;97100;;;15;62
68628;BME280;55611;48.602;9.490;2023-05-09T02:47:09;97100;;;15;62
68628;BME280;55611;48.602;9.490;2023-05-09T02:49:39;97100;;;15.1;62
68628;BME280;55611;48.602;9.490;2023-05-09T02:52:10;97090;;;15.1;62
68628;BME280;55611;48.602;9.490;2023-05-09T02:54:40;97100;;;15.1;62
68628;BME280;55611;48.602;9.490;2023-05-09T02:57:11;97090;;;15.1;62
68628;BME280;55611;48.602;9.490;2023-05-09T02:59:41;97090;;;15.1;62
68628;BME280;55611;48.602;9.490;2023-05-09T03:02:12;97080;;;15.1;62
68628;BME280;55611;48.602;9.490;2023-05-09T03:04:42;97070;;;15.1;62.5
68628;BME280;55611;48.602;9.490;2023-05-09T03:07:13;97070;;;15.1;62
68628;BME280;55611;48.602;9.490;2023-05-09T03:09:43;97070;;;15.2;62
68628;BME280;55611;48.602;9.490;2023-05-09T03:12:14;97070;;;15.2;62
68628;BME280;55611;48.602;9.490;2023-05-09T03:14:45;97070;;;15.2;62
68628;BME280;55611;48.602;9.490;2023-05-09T03:17:15;97070;;;15.2;62
68628;BME280;55611;48.602;9.490;2023-05-09T03:19:46;97070;;;15.2;62
68628;BME280;55611;48.602;9.490;2023-05-09T03:22:16;97070;;;15.2;62
68628;BME280;55611;48.602;9.490;2023-05-09T03:24:46;97070;;;15.3;62
68628;BME280;55611;48.602;9.490;2023-05-09T03:27:17;97060;;;15.3;62
68628;BME280;55611;48.602;9.490;2023-05-09T03:29:47;97060;;;15.3;62
68628;BME280;55611;48.602;9.490;2023-05-09T03:32:18;97050;;;15.2;62
68628;BME280;55611;48.602;9.490;2023-05-09T03:34:49;97050;;;15.2;62
68628;BME280;55611;48.602;9.490;2023-05-09T03:37:19;97050;;;15.2;62
68628;BME280;55611;48.602;9.490;2023-05-09T03:39:49;97030;;;15.2;62
68628;BME280;55611;48.602;9.490;2023-05-09T03:42:20;97030;;;15.2;62
68628;BME280;55611;48.602;9.490;2023-05-09T03:44:50;97030;;;15.2;62
68628;BME280;55611;48.602;9.490;2023-05-09T03:47:21;97020;;;15.2;62
68628;BME280;55611;48.602;9.490;2023-05-09T03:49:51;97020;;;15.1;62
68628;BME280;55611;48.602;9.490;2023-05-09T03:52:22;97020;;;15.1;62
68628;BME280;55611;48.602;9.490;2023-05-09T03:54:53;97030;;;15.1;62
68628;BME280;55611;48.602;9.490;2023-05-09T03:57:23;97030;;;15.1;62
68628;BME280;55611;48.602;9.490;2023-05-09T03:59:54;97040;;;15.1;62
68628;BME280;55611;48.602;9.490;2023-05-09T04:02:24;97040;;;15;62.5
68628;BME280;55611;48.602;9.490;2023-05-09T04:04:55;97030;;;15;62.5
68628;BME280;55611;48.602;9.490;2023-05-09T04:07:25;97030;;;15.1;62.5
68628;BME280;55611;48.602;9.490;2023-05-09T04:09:56;97040;;;15.2;62.5
68628;BME280;55611;48.602;9.490;2023-05-09T04:12:26;97040;;;15.2;62.5
68628;BME280;55611;48.602;9.490;2023-05-09T04:14:57;97040;;;15.2;62
68628;BME280;55611;48.602;9.490;2023-05-09T04:17:27;97050;;;15.1;62
68628;BME280;55611;48.602;9.490;2023-05-09T04:19:58;97050;;;15.1;62
68628;BME280;55611;48.602;9.490;2023-05-09T04:22:28;97040;;;15.2;62
68628;BME280;55611;48.602;9.490;2023-05-09T04:24:59;97040;;;15.2;62
68628;BME280;55611;48.602;9.490;2023-05-09T04:27:29;97040;;;15.3;62
68628;BME280;55611;48.602;9.490;2023-05-09T04:30:00;97040;;;15.3;62
68628;BME280;55611;48.602;9.490;2023-05-09T04:32:30;97040;;;15.3;62
68628;BME280;55611;48.602;9.490;2023-05-09T04:35:01;97040;;;15.3;62
68628;BME280;55611;48.602;9.490;2023-05-09T04:37:31;97040;;;15.4;62
68628;BME280;55611;48.602;9.490;2023-05-09T04:40:02;97040;;;15.4;62
68628;BME280;55611;48.602;9.490;2023-05-09T04:42:32;97040;;;15.4;62
68628;BME280;55611;48.602;9.490;2023-05-09T04:45:03;97040;;;15.5;62
68628;BME280;55611;48.602;9.490;2023-05-09T04:47:33;97040;;;15.5;62
68628;BME280;55611;48.602;9.490;2023-05-09T04:50:04;97050;;;15.6;62.5
68628;BME280;55611;48.602;9.490;2023-05-09T04:52:34;97050;;;15.6;62.5
68628;BME280;55611;48.602;9.490;2023-05-09T04:55:05;97050;;;15.7;62.5
68628;BME280;55611;48.602;9.490;2023-05-09T04:57:35;97040;;;15.7;62.5
68628;BME280;55611;48.602;9.490;2023-05-09T05:02:36;97050;;;15.9;62.5
68628;BME280;55611;48.602;9.490;2023-05-09T05:05:07;97040;;;16;62.5
68628;BME280;55611;48.602;9.490;2023-05-09T05:07:38;97050;;;16;62.5
68628;BME280;55611;48.602;9.490;2023-05-09T05:10:08;97050;;;16.1;62.5
68628;BME280;55611;48.602;9.490;2023-05-09T05:12:39;97050;;;16;62.5
68628;BME280;55611;48.602;9.490;2023-05-09T05:15:09;97050;;;16.1;62.5
68628;BME280;55611;48.602;9.490;2023-05-09T05:17:40;97050;;;16.2;62.5
68628;BME280;55611;48.602;9.490;2023-05-09T05:20:10;97050;;;16.3;63
68628;BME280;55611;48.602;9.490;2023-05-09T05:22:41;97040;;;16.4;63
68628;BME280;55611;48.602;9.490;2023-05-09T05:25:11;97040;;;16.5;63
68628;BME280;55611;48.602;9.490;2023-05-09T05:27:42;97040;;;16.5;63
68628;BME280;55611;48.602;9.490;2023-05-09T05:30:12;97040;;;16.6;63
68628;BME280;55611;48.602;9.490;2023-05-09T05:32:43;97040;;;16.7;63
68628;BME280;55611;48.602;9.490;2023-05-09T05:35:13;97050;;;16.9;63
68628;BME280;55611;48.602;9.490;2023-05-09T05:37:44;97040;;;17;63
68628;BME280;55611;48.602;9.490;2023-05-09T05:40:14;97040;;;17.1;63
68628;BME280;55611;48.602;9.490;2023-05-09T05:42:45;97030;;;17.3;63
68628;BME280;55611;48.602;9.490;2023-05-09T05:45:15;97040;;;17.4;63
68628;BME280;55611;48.602;9.490;2023-05-09T05:47:46;97030;;;17.5;63
68628;BME280;55611;48.602;9.490;2023-05-09T05:50:16;97030;;;17.6;63
68628;BME280;55611;48.602;9.490;2023-05-09T05:52:47;97030;;;17.6;63
68628;BME280;55611;48.602;9.490;2023-05-09T05:55:17;97030;;;17.6;63
68628;BME280;55611;48.602;9.490;2023-05-09T05:57:48;97020;;;17.7;63
68628;BME280;55611;48.602;9.490;2023-05-09T06:00:18;97020;;;17.8;63
68628;BME280;55611;48.602;9.490;2023-05-09T06:02:49;97010;;;17.9;63
68628;BME280;55611;48.602;9.490;2023-05-09T06:05:19;97000;;;17.9;63
68628;BME280;55611;48.602;9.490;2023-05-09T06:07:50;97000;;;17.9;63
68628;BME280;55611;48.602;9.490;2023-05-09T06:10:20;97000;;;18;63
68628;BME280;55611;48.602;9.490;2023-05-09T06:12:51;97000;;;18.1;63
68628;BME280;55611;48.602;9.490;2023-05-09T06:15:21;96990;;;18.1;63
68628;BME280;55611;48.602;9.490;2023-05-09T06:17:52;96990;;;18;63
68628;BME280;55611;48.602;9.490;2023-05-09T06:20:23;96990;;;18.1;63
68628;BME280;55611;48.602;9.490;2023-05-09T06:22:53;96990;;;18.1;63
68628;BME280;55611;48.602;9.490;2023-05-09T06:25:23;96990;;;18.1;63
68628;BME280;55611;48.602;9.490;2023-05-09T06:27:54;96980;;;18.1;63
68628;BME280;55611;48.602;9.490;2023-05-09T06:30:24;96980;;;18.2;63
68628;BME280;55611;48.602;9.490;2023-05-09T06:32:55;96980;;;18.3;63
68628;BME280;55611;48.602;9.490;2023-05-09T06:35:26;96980;;;18.5;63
68628;BME280;55611;48.602;9.490;2023-05-09T06:37:56;96970;;;18.6;63
68628;BME280;55611;48.602;9.490;2023-05-09T06:40:27;96970;;;18.7;63
68628;BME280;55611;48.602;9.490;2023-05-09T06:42:57;96970;;;18.7;63
68628;BME280;55611;48.602;9.490;2023-05-09T06:45:28;96970;;;18.8;63
68628;BME280;55611;48.602;9.490;2023-05-09T06:47:58;96970;;;18.9;63
68628;BME280;55611;48.602;9.490;2023-05-09T06:50:29;96960;;;19;63
68628;BME280;55611;48.602;9.490;2023-05-09T06:52:59;96960;;;19.1;63
68628;BME280;55611;48.602;9.490;2023-05-09T06:55:30;96960;;;19.1;62.5
68628;BME280;55611;48.602;9.490;2023-05-09T06:58:00;96960;;;19.2;62.5
68628;BME280;55611;48.602;9.490;2023-05-09T07:00:31;96960;;;19.2;63
68628;BME280;55611;48.602;9.490;2023-05-09T07:03:01;96950;;;19.2;63
68628;BME280;55611;48.602;9.490;2023-05-09T07:05:32;96950;;;19.3;63
68628;BME280;55611;48.602;9.490;2023-05-09T07:08:02;96950;;;19.4;63
68628;BME280;55611;48.602;9.490;2023-05-09T07:10:33;96950;;;19.4;63
68628;BME280;55611;48.602;9.490;2023-05-09T07:13:03;96950;;;19.5;63
68628;BME280;55611;48.602;9.490;2023-05-09T07:15:34;96950;;;19.7;63
68628;BME280;55611;48.602;9.490;2023-05-09T07:18:04;96940;;;19.9;63
68628;BME280;55611;48.602;9.490;2023-05-09T07:20:35;96940;;;20;63
68628;BME280;55611;48.602;9.490;2023-05-09T07:23:05;96930;;;20;63
68628;BME280;55611;48.602;9.490;2023-05-09T07:25:36;96930;;;19.9;63
68628;BME280;55611;48.602;9.490;2023-05-09T07:28:06;96930;;;19.9;63
68628;BME280;55611;48.602;9.490;2023-05-09T07:30:37;96930;;;20;63
68628;BME280;55611;48.602;9.490;2023-05-09T07:33:07;96930;;;20.1;63
68628;BME280;55611;48.602;9.490;2023-05-09T07:35:38;96930;;;20.1;63
68628;BME280;55611;48.602;9.490;2023-05-09T07:38:08;96920;;;20.2;63
68628;BME280;55611;48.602;9.490;2023-05-09T07:40:39;96910;;;20.3;63
68628;BME280;55611;48.602;9.490;2023-05-09T07:43:10;96920;;;20.3;63
68628;BME280;55611;48.602;9.490;2023-05-09T07:45:40;96910;;;20.4;63
68628;BME280;55611;48.602;9.490;2023-05-09T07:48:10;96910;;;20.4;63
68628;BME280;55611;48.602;9.490;2023-05-09T07:50:41;96910;;;20.4;63
68628;BME280;55611;48.602;9.490;2023-05-09T07:53:12;96900;;;20.5;63
68628;BME280;55611;48.602;9.490;2023-05-09T07:55:42;96900;;;20.6;63
68628;BME280;55611;48.602;9.490;2023-05-09T07:58:13;96900;;;20.6;63
68628;BME280;55611;48.602;9.490;2023-05-09T08:00:43;96890;;;20.6;63
68628;BME280;55611;48.602;9.490;2023-05-09T08:03:14;96880;;;20.7;63
68628;BME280;55611;48.602;9.490;2023-05-09T08:05:44;96880;;;20.6;63
68628;BME280;55611;48.602;9.490;2023-05-09T08:08:15;96870;;;20.6;63
68628;BME280;55611;48.602;9.490;2023-05-09T08:10:45;96860;;;20.6;63
68628;BME280;55611;48.602;9.490;2023-05-09T08:13:16;96870;;;20.6;63
68628;BME280;55611;48.602;9.490;2023-05-09T08:15:47;96870;;;20.7;63
68628;BME280;55611;48.602;9.490;2023-05-09T08:18:17;96860;;;20.8;63
68628;BME280;55611;48.602;9.490;2023-05-09T08:20:48;96860;;;20.9;63
68628;BME280;55611;48.602;9.490;2023-05-09T08:23:18;96860;;;21;63
68628;BME280;55611;48.602;9.490;2023-05-09T08:25:51;96860;;;21.2;63
68628;BME280;55611;48.602;9.490;2023-05-09T08:28:19;96850;;;21.2;63
68628;BME280;55611;48.602;9.490;2023-05-09T08:30:50;96850;;;21.2;63
68628;BME280;55611;48.602;9.490;2023-05-09T08:33:20;96850;;;21.2;63
68628;BME280;55611;48.602;9.490;2023-05-09T08:35:51;96840;;;21.2;63
68628;BME280;55611;48.602;9.490;2023-05-09T08:38:21;96840;;;21.2;63
68628;BME280;55611;48.602;9.490;2023-05-09T08:40:51;96840;;;21.3;63
68628;BME280;55611;48.602;9.490;2023-05-09T08:43:22;96830;;;21.4;63
68628;BME280;55611;48.602;9.490;2023-05-09T08:45:53;96830;;;21.5;63
68628;BME280;55611;48.602;9.490;2023-05-09T08:48:23;96820;;;21.5;63
68628;BME280;55611;48.602;9.490;2023-05-09T08:50:54;96820;;;21.5;63
68628;BME280;55611;48.602;9.490;2023-05-09T08:55:54;96810;;;21.6;63
68628;BME280;55611;48.602;9.490;2023-05-09T08:58:25;96810;;;21.5;63
68628;BME280;55611;48.602;9.490;2023-05-09T09:00:55;96810;;;21.6;63
68628;BME280;55611;48.602;9.490;2023-05-09T09:03:26;96790;;;21.5;63
68628;BME280;55611;48.602;9.490;2023-05-09T09:05:56;96800;;;21.5;63
68628;BME280;55611;48.602;9.490;2023-05-09T09:08:27;96800;;;21.6;63
68628;BME280;55611;48.602;9.490;2023-05-09T09:10:58;96800;;;21.6;63
68628;BME280;55611;48.602;9.490;2023-05-09T09:13:28;96800;;;21.6;63
68628;BME280;55611;48.602;9.490;2023-05-09T09:15:59;96800;;;21.6;63
68628;BME280;55611;48.602;9.490;2023-05-09T09:18:29;96800;;;21.6;63
68628;BME280;55611;48.602;9.490;2023-05-09T09:21:04;96790;;;21.7;63.5
68628;BME280;55611;48.602;9.490;2023-05-09T09:23:30;96790;;;21.8;63.5
68628;BME280;55611;48.602;9.490;2023-05-09T09:26:01;96780;;;21.8;63.5
68628;BME280;55611;48.602;9.490;2023-05-09T09:28:32;96780;;;21.8;63.5
68628;BME280;55611;48.602;9.490;2023-05-09T09:31:02;96780;;;21.9;63.5
68628;BME280;55611;48.602;9.490;2023-05-09T09:33:32;96770;;;22;63.5
68628;BME280;55611;48.602;9.490;2023-05-09T09:36:03;96770;;;22.2;63.5
68628;BME280;55611;48.602;9.490;2023-05-09T09:38:38;96770;;;22.3;63
68628;BME280;55611;48.602;9.490;2023-05-09T09:41:04;96760;;;22.4;63
68628;BME280;55611;48.602;9.490;2023-05-09T09:43:34;96760;;;22.6;63
68628;BME280;55611;48.602;9.490;2023-05-09T09:46:05;96750;;;22.6;63
68628;BME280;55611;48.602;9.490;2023-05-09T09:48:35;96750;;;22.6;63
68628;BME280;55611;48.602;9.490;2023-05-09T09:51:07;96740;;;22.8;63
68628;BME280;55611;48.602;9.490;2023-05-09T09:53:38;96740;;;22.9;63
68628;BME280;55611;48.602;9.490;2023-05-09T09:56:07;96740;;;22.9;62.5
68628;BME280;55611;48.602;9.490;2023-05-09T09:58:37;96730;;;22.8;62.5
68628;BME280;55611;48.602;9.490;2023-05-09T10:03:39;96730;;;22.5;62.5
68628;BME280;55611;48.602;9.490;2023-05-09T10:06:09;96730;;;22.5;62.5
68628;BME280;55611;48.602;9.490;2023-05-09T10:08:40;96720;;;22.6;62.5
68628;BME280;55611;48.602;9.490;2023-05-09T10:11:10;96710;;;22.7;62.5
68628;BME280;55611;48.602;9.490;2023-05-09T10:13:40;96710;;;22.7;62.5
68628;BME280;55611;48.602;9.490;2023-05-09T10:16:11;96710;;;22.9;62.5
68628;BME280;55611;48.602;9.490;2023-05-09T10:18:42;96710;;;23.1;62.5
68628;BME280;55611;48.602;9.490;2023-05-09T10:21:13;96710;;;23.4;63
68628;BME280;55611;48.602;9.490;2023-05-09T10:23:44;96700;;;23.7;63
68628;BME280;55611;48.602;9.490;2023-05-09T10:26:17;96700;;;23.8;62.5
68628;BME280;55611;48.602;9.490;2023-05-09T10:28:44;96690;;;23.8;62.5
68628;BME280;55611;48.602;9.490;2023-05-09T10:31:15;96690;;;23.8;62.5
68628;BME280;55611;48.602;9.490;2023-05-09T10:33:45;96690;;;23.8;62.5
68628;BME280;55611;48.602;9.490;2023-05-09T10:36:16;96680;;;23.9;62.5
68628;BME280;55611;48.602;9.490;2023-05-09T10:38:46;96680;;;24;62.5
68628;BME280;55611;48.602;9.490;2023-05-09T10:41:16;96680;;;24;62.5
68628;BME280;55611;48.602;9.490;2023-05-09T10:43:47;96680;;;23.9;62.5
68628;BME280;55611;48.602;9.490;2023-05-09T10:46:17;96670;;;23.8;62.5
68628;BME280;55611;48.602;9.490;2023-05-09T10:48:48;96660;;;23.8;62.5
68628;BME280;55611;48.602;9.490;2023-05-09T10:51:18;96660;;;23.7;62.5
68628;BME280;55611;48.602;9.490;2023-05-09T10:53:49;96650;;;23.7;62.5
68628;BME280;55611;48.602;9.490;2023-05-09T10:56:21;96650;;;23.7;62.5
68628;BME280;55611;48.602;9.490;2023-05-09T10:58:50;96650;;;23.6;62.5
68628;BME280;55611;48.602;9.490;2023-05-09T11:01:36;96650;;;23.6;62.5
68628;BME280;55611;48.602;9.490;2023-05-09T11:03:51;96650;;;23.7;62.5
68628;BME280;55611;48.602;9.490;2023-05-09T11:06:52;96640;;;23.6;62.5
68628;BME280;55611;48.602;9.490;2023-05-09T11:08:52;96640;;;23.7;62.5
68628;BME280;55611;48.602;9.490;2023-05-09T11:11:22;96630;;;23.8;62.5
68628;BME280;55611;48.602;9.490;2023-05-09T11:13:53;96620;;;23.9;62.5
68628;BME280;55611;48.602;9.490;2023-05-09T11:16:24;96620;;;24;62.5
68628;BME280;55611;48.602;9.490;2023-05-09T11:18:54;96620;;;24;62.5
68628;BME280;55611;48.602;9.490;2023-05-09T11:21:24;96610;;;23.9;62.5
68628;BME280;55611;48.602;9.490;2023-05-09T11:23:55;96610;;;24;62.5
68628;BME280;55611;48.602;9.490;2023-05-09T11:26:27;96610;;;23.9;62.5
68628;BME280;55611;48.602;9.490;2023-05-09T11:28:58;96610;;;24;62.5
68628;BME280;55611;48.602;9.490;2023-05-09T11:31:26;96600;;;24.1;62.5
68628;BME280;55611;48.602;9.490;2023-05-09T11:34:00;96600;;;24.3;62.5
68628;BME280;55611;48.602;9.490;2023-05-09T11:36:28;96600;;;24.5;62.5
68628;BME280;55611;48.602;9.490;2023-05-09T11:38:59;96590;;;24.6;62.5
68628;BME280;55611;48.602;9.490;2023-05-09T11:41:29;96590;;;24.7;62.5
68628;BME280;55611;48.602;9.490;2023-05-09T11:43:59;96580;;;24.8;62.5
68628;BME280;55611;48.602;9.490;2023-05-09T11:46:29;96580;;;24.9;62.5
68628;BME280;55611;48.602;9.490;2023-05-09T11:49:00;96570;;;24.8;62
68628;BME280;55611;48.602;9.490;2023-05-09T11:51:30;96570;;;24.7;62
68628;BME280;55611;48.602;9.490;2023-05-09T11:54:01;96570;;;24.4;62
68628;BME280;55611;48.602;9.490;2023-05-09T11:56:33;96560;;;24.3;62
68628;BME280;55611;48.602;9.490;2023-05-09T11:59:02;96560;;;24.3;62
68628;BME280;55611;48.602;9.490;2023-05-09T12:01:33;96550;;;24.3;62.5
68628;BME280;55611;48.602;9.490;2023-05-09T12:04:04;96550;;;24.5;62.5
68628;BME280;55611;48.602;9.490;2023-05-09T12:06:34;96540;;;24.7;62.5
68628;BME280;55611;48.602;9.490;2023-05-09T12:09:04;96540;;;24.5;62.5
68628;BME280;55611;48.602;9.490;2023-05-09T12:11:35;96530;;;24.6;62
68628;BME280;55611;48.602;9.490;2023-05-09T12:14:05;96530;;;24.7;62
68628;BME280;55611;48.602;9.490;2023-05-09T12:16:36;96530;;;24.7;62
68628;BME280;55611;48.602;9.490;2023-05-09T12:19:06;96520;;;24.8;62
68628;BME280;55611;48.602;9.490;2023-05-09T12:21:37;96520;;;24.7;62.5
68628;BME280;55611;48.602;9.490;2023-05-09T12:24:07;96510;;;24.7;62.5
68628;BME280;55611;48.602;9.490;2023-05-09T12:26:38;96510;;;24.8;62.5
68628;BME280;55611;48.602;9.490;2023-05-09T12:29:08;96500;;;24.7;62.5
68628;BME280;55611;48.602;9.490;2023-05-09T12:31:40;96500;;;24.5;62.5
68628;BME280;55611;48.602;9.490;2023-05-09T12:34:09;96500;;;24.4;62.5
68628;BME280;55611;48.602;9.490;2023-05-09T12:36:42;96490;;;24.5;62.5
68628;BME280;55611;48.602;9.490;2023-05-09T12:39:10;96490;;;24.5;62.5
68628;BME280;55611;48.602;9.490;2023-05-09T12:41:41;96480;;;24.5;62.5
68628;BME280;55611;48.602;9.490;2023-05-09T12:44:26;96470;;;24.6;62.5
68628;BME280;55611;48.602;9.490;2023-05-09T12:46:42;96470;;;24.6;62.5
68628;BME280;55611;48.602;9.490;2023-05-09T12:49:20;96470;;;24.6;62.5
68628;BME280;55611;48.602;9.490;2023-05-09T12:51:47;96470;;;24.7;62.5
68628;BME280;55611;48.602;9.490;2023-05-09T12:54:13;96470;;;24.9;62.5
68628;BME280;55611;48.602;9.490;2023-05-09T12:56:44;96460;;;25;62.5
68628;BME280;55611;48.602;9.490;2023-05-09T12:59:14;96460;;;25.1;62.5
68628;BME280;55611;48.602;9.490;2023-05-09T13:01:49;96450;;;25.1;62
68628;BME280;55611;48.602;9.490;2023-05-09T13:04:16;96450;;;25.1;62
68628;BME280;55611;48.602;9.490;2023-05-09T13:06:48;96450;;;25.2;62
68628;BME280;55611;48.602;9.490;2023-05-09T13:09:17;96450;;;25.3;62
68628;BME280;55611;48.602;9.490;2023-05-09T13:11:48;96440;;;25.3;62
68628;BME280;55611;48.602;9.490;2023-05-09T13:14:18;96430;;;25.3;62
68628;BME280;55611;48.602;9.490;2023-05-09T13:16:48;96430;;;25.2;62
68628;BME280;55611;48.602;9.490;2023-05-09T13:19:19;96420;;;25.2;62
68628;BME280;55611;48.602;9.490;2023-05-09T13:21:49;96410;;;25.3;62.5
68628;BME280;55611;48.602;9.490;2023-05-09T13:24:20;96410;;;25.3;62.5
68628;BME280;55611;48.602;9.490;2023-05-09T13:26:50;96410;;;25.3;62
68628;BME280;55611;48.602;9.490;2023-05-09T13:29:21;96410;;;25.4;62
68628;BME280;55611;48.602;9.490;2023-05-09T13:31:51;96400;;;25.3;62
68628;BME280;55611;48.602;9.490;2023-05-09T13:34:22;96390;;;25.2;62
68628;BME280;55611;48.602;9.490;2023-05-09T13:36:52;96390;;;25.4;62
68628;BME280;55611;48.602;9.490;2023-05-09T13:39:23;96380;;;25.4;62
68628;BME280;55611;48.602;9.490;2023-05-09T13:41:53;96380;;;25.4;62
68628;BME280;55611;48.602;9.490;2023-05-09T13:44:24;96380;;;25.5;62
68628;BME280;55611;48.602;9.490;2023-05-09T13:46:54;96370;;;25.4;62.5
68628;BME280;55611;48.602;9.490;2023-05-09T13:49:25;96360;;;25.3;62
68628;BME280;55611;48.602;9.490;2023-05-09T13:51:55;96360;;;25.4;62
68628;BME280;55611;48.602;9.490;2023-05-09T13:54:26;96360;;;25.4;62
68628;BME280;55611;48.602;9.490;2023-05-09T13:56:56;96350;;;25.4;61.5
68628;BME280;55611;48.602;9.490;2023-05-09T13:59:27;96350;;;25.4;61.5
68628;BME280;55611;48.602;9.490;2023-05-09T14:01:58;96340;;;25.3;61.5
68628;BME280;55611;48.602;9.490;2023-05-09T14:04:28;96340;;;25.3;61.5
68628;BME280;55611;48.602;9.490;2023-05-09T14:06:59;96340;;;25.4;61.5
68628;BME280;55611;48.602;9.490;2023-05-09T14:11:59;96340;;;25.7;61.5
68628;BME280;55611;48.602;9.490;2023-05-09T14:14:30;96330;;;25.7;61.5
68628;BME280;55611;48.602;9.490;2023-05-09T14:17:00;96330;;;25.8;61.5
68628;BME280;55611;48.602;9.490;2023-05-09T14:19:31;96330;;;25.8;61.5
68628;BME280;55611;48.602;9.490;2023-05-09T14:22:01;96320;;;25.8;61.5
68628;BME280;55611;48.602;9.490;2023-05-09T14:24:32;96320;;;25.7;61.5
68628;BME280;55611;48.602;9.490;2023-05-09T14:27:02;96310;;;25.6;61.5
68628;BME280;55611;48.602;9.490;2023-05-09T14:29:33;96300;;;25.6;61.5
68628;BME280;55611;48.602;9.490;2023-05-09T14:32:03;96300;;;25.6;61.5
68628;BME280;55611;48.602;9.490;2023-05-09T14:34:34;96300;;;25.7;61
68628;BME280;55611;48.602;9.490;2023-05-09T14:37:04;96300;;;25.6;61
68628;BME280;55611;48.602;9.490;2023-05-09T14:39:35;96300;;;25.6;61
68628;BME280;55611;48.602;9.490;2023-05-09T14:42:05;96300;;;25.5;61
68628;BME280;55611;48.602;9.490;2023-05-09T14:44:36;96300;;;25.4;61
68628;BME280;55611;48.602;9.490;2023-05-09T14:47:07;96290;;;25.4;61